Accueil
METAR-TAF:

METAR-TAF

Aéroports :

Aéroport international de Malé

Malé, Maldives

latitude: 04-12N, longitude: 073-32E, altitude: 2 m

Observation

Le bulletin a été fait il y a 50 minutes, à 18:00 UTC
Vent 14 kt de est
Température 29°C
Humidité 79%
Pression 1012 hPa
Visibilité: 9000 m
Quelques nuages à une hauteur de 1700 ft, Cumulus congestus.

METAR: VRMM 161800Z 08014KT 9000 FEW017TCU 29/25 Q1012 NOSIG

Heure: 23:50 (18:50 UTC)

Prévision

Le bulletin a été fait il y a 1 heure et 50 minutes, à 17:00 UTC
Prévision valable du 16 à 18 UTC au 17 à 24 UTC
Vent 14 kt de est
Visibilité: 9000 m
Quelques nuages à une hauteur de 1800 ft, Cumulus congestus.
Temporairement
du 16 à 18 UTC au 16 à 24 UTC
Visibilité: 5000 m
Quelques nuages à une hauteur de 1700 ft, Cumulonimbus.
orage, pluie faible

TAF: VRMM 161700Z 1618/1724 09014KT 9000 FEW018TCU TEMPO 1618/1624 5000 -TSRA FEW017CB

Observations et prévisions météorologiques de plus de 4000 aéroports (messages METAR et TAF).

Les stations disponibles sont représentées par des disques jaunes et rouges sur la carte.

Passer la souris dessus pour voir le nom de la station.

Cliquer dessus pour voir les observations et prévisions météorologiques.

Pour changer de carte: cliquez sur les boutons verts avec une croix noire pour zoomer, sur le bouton vert avec un tiret pour effectuer un zoom arrière, ou sur les flèches vertes pour les cartes adjacentes.


METAR-TAF: